Island Park, ID

9:20 PM MDT on September 16, 2014 (GMT -0600)
ITD Henry\'s Lake ID US | Change Station
CLOSE
Current Station
Personal Weather Station
Location: Island Park, ID
Elevation: 6617 ft
Nearby Weather Stations

Elev 6617 ft 44.62 °N, 111.34 °W | Updated 50 minutes ago

Mostly Cloudy
Mostly Cloudy
61 °F
Feels Like 61 °F
N
9
Wind Variable Wind from NW
Gusts 10.0 mph

Today
High -- | Low -- °F
--% Chance of Precip.
Yesterday
High -- | Low -- °F
Precip. -- in
7:05 AM 7:33 PM
Last Quarter, 40% visible
Pressure 30.17 in
Visibility 10.0 miles
Clouds Clear
Dew Point 47 °F
Humidity 59%
Rainfall 0.00 in
Snow Depth 0 in , 0 in , 1 in
UV 0 out of 12
Pollen 6.60 out of 12
Air Quality Not available.
Flu Activity Not available.
METAR KWYS 170310Z AUTO 00000KT 10SM CLR 12/05 A3017 RMK AO2

More Conditions Fewer Conditions

Pressure 30.17 in
Visibility 10.0 miles
Clouds Clear
Dew Point 47 °F
Humidity 59%
Rainfall 0.00 in
Snow Depth 0 in , 0 in , 1 in
UV 0 out of 12
Pollen 6.60 out of 12
Air Quality Not available.
Flu Activity Not available.
METAR KWYS 170310Z AUTO 00000KT 10SM CLR 12/05 A3017 RMK AO2

More Conditions Fewer Conditions

10-Day Weather Forecast

Almanac

Astronomy

Sep. 16, 2014 Rise Set
Actual Time 7:05 AM MDT 7:33 PM MDT
Civil Twilight 6:36 AM MDT 8:03 PM MDT
Nautical Twilight 6:01 AM MDT 8:37 PM MDT
Astronomical Twilight 5:26 AM MDT 9:12 PM MDT
Moon 12:08 AM MDT (9/16) 3:10 PM MDT (9/16)
Length of Visible Light 13h 26m
Length of Day
12h 28m
Tomorrow will be 3m 3s shorter.
Last Quarter, 40% of the Moon is Illuminated
Today
Last Quarter
Sep 24
New
Oct 1
First Quarter
Oct 8
Full
Oct 15
Last Quarter

Today's Extremes

State Highs State Lows

Community

WunderPhotos

Upload Photos

1,753,953 photos uploaded!

Nearby

Snow Depth

Station Depth Elevation
Myrtle Creek 0 in 3520 ft
Schweitzer Basin 0 in 6090 ft
Wildhorse Divide 1 in 6490 ft
Vienna Mine 1 in 8960 ft
Oxford Spring 0 in 6740 ft

Earthquake Activity

City Distance Mag. Time & Date
No recent earthquake activity has been reported nearby.
Minimum magnitude displayed is 2.5.

Coastal Water Temperatures

Place Temperature
No Stations Reporting

Nearby Weather Stations